Terminal Aerodrome Forecast
Issued by NWS

Home | Current Version | Previous Version | Text Only | Print | Product List | Glossary On
Versions: 1 2 3 4 5 6 7 8 9 10 11 12 13 14
406
FTUS44 KSJT 242336
TAFSOA
TAF
KSOA 242336Z 2500/2524 15009KT P6SM VCSH SCT040 OVC120
      TEMPO 2500/2504 -SHRA BKN040
     FM250900 15009KT P6SM VCSH OVC015
     FM251600 16012G19KT P6SM VCSH SCT020 OVC030
     FM251800 16012G20KT P6SM VCSH BKN035=

USA.gov is the U.S. government's official web portal to all federal, state and local government web resources and services.